Butterfly — C6UP2 — position and weather

sailwx.info

Track history (hours):
 
Tides and Currents Weather Stations Pressure Air Temp Water Temp Dewpoint Dewpoint Depression Visibility Wind Speed Wind Dir Waves Ship Positions

Butterfly

Last reported at 2014-Sep-18 12:23 UTC. Time now 2014-Sep-18 17:49 UTC.
Position N 40°39' W 074°07'.

Length 182 m; draft 10.4 m.

Type: Ship. MMSI: 311985000.

Date/timePositionNaut miles runAvg speedWind from/ knotsBaromVisibWave heightAir tempDewpointWater temp
2014-Sep-18 12:23N 40°39' W 074°07'0 0.0
2014-Sep-18 10:32N 40°39' W 074°07'0 0.0
2014-Sep-17 10:08N 40°39' W 074°07'0 0.0
2014-Sep-17 09:32N 40°39' W 074°07'3 3.0
2014-Sep-17 08:33N 40°38' W 074°03'8 8.0
2014-Sep-17 07:31N 40°31' W 073°58'14 6.6
2014-Sep-17 05:28N 40°29' W 073°40'0 0.0
2014-Sep-17 04:04N 40°29' W 073°40'0 0.0
2014-Sep-17 00:28N 40°29' W 073°40'7 7.0
2014-Sep-16 23:32N 40°27' W 073°48'1212.4
2014-Sep-16 22:33N 40°34' W 074°02'5 1.3
2014-Sep-16 18:20N 40°39' W 074°03'0 0.0
2014-Sep-16 17:14N 40°39' W 074°03'0 0.0
2014-Sep-16 10:29N 40°39' W 074°03'0 0.1
2014-Sep-16 09:32N 40°39' W 074°03'0 0.1
2014-Sep-16 08:32N 40°39' W 074°03'0 0.0
2014-Sep-16 07:29N 40°39' W 074°03'0 0.1
2014-Sep-16 06:32N 40°39' W 074°03'2 0.1
2014-Sep-15 05:29N 40°39' W 074°05'3 3.4
2014-Sep-15 04:32N 40°37' W 074°03'8 8.2
2014-Sep-15 03:33N 40°30' W 073°57'15 7.6
2014-Sep-15 01:34N 40°29' W 073°37'0 0.2
2014-Sep-15 00:33N 40°29' W 073°37'0 0.0
2014-Sep-14 23:33N 40°29' W 073°37'0 0.1
2014-Sep-14 22:33N 40°29' W 073°37'9 6.7
2014-Sep-14 21:16N 40°29' W 073°25'9 9.9
2014-Sep-14 20:20N 40°30' W 073°13'1013.0
2014-Sep-14 19:33N 40°30' W 073°00'1313.3
2014-Sep-14 18:33N 40°31' W 072°43'1313.1
2014-Sep-14 17:33N 40°31' W 072°25'1313.2
2014-Sep-14 16:33N 40°31' W 072°08'1313.0
2014-Sep-14 15:33N 40°32' W 071°51'1313.1
2014-Sep-14 14:32N 40°32' W 071°33'1313.2
2014-Sep-14 13:33N 40°32' W 071°16'1413.6
2014-Sep-14 12:33N 40°33' W 070°58'1414.4
2014-Sep-14 11:34N 40°33' W 070°39'1313.1
2014-Sep-14 10:33N 40°33' W 070°22'1313.1
2014-Sep-14 09:33N 40°34' W 070°05'1312.9
2014-Sep-14 08:33N 40°34' W 069°48'1312.6
2014-Sep-14 07:33N 40°34' W 069°31'  
2014-Sep-10 04:26N 46°33' W 072°09'1112.8
2014-Sep-10 03:33N 46°26' W 072°22'1211.7
2014-Sep-10 02:33N 46°18' W 072°35'1211.8
2014-Sep-10 01:33N 46°12' W 072°50'2411.9
2014-Sep-09 23:33N 45°55' W 073°13'1312.7
2014-Sep-09 22:33N 45°45' W 073°24'9 9.3
2014-Sep-09 21:33N 45°37' W 073°30'0 0.0
2014-Sep-09 20:28N 45°37' W 073°30'0 0.0
2014-Sep-09 19:31N 45°37' W 073°30'0 0.0
2014-Sep-09 18:31N 45°37' W 073°30'0 0.0
2014-Sep-09 17:31N 45°37' W 073°30'0 0.0
2014-Sep-09 16:31N 45°37' W 073°30'0 0.0
2014-Sep-09 15:31N 45°37' W 073°30'0 0.0
2014-Sep-09 14:31N 45°37' W 073°30'0 0.0
2014-Sep-09 13:31N 45°37' W 073°30'0 0.0
2014-Sep-09 12:31N 45°37' W 073°30'0 0.0
2014-Sep-09 11:31N 45°37' W 073°30'0 0.0
2014-Sep-09 10:31N 45°37' W 073°30'0 0.0
2014-Sep-09 09:31N 45°37' W 073°30'0 0.0
2014-Sep-09 08:31N 45°37' W 073°30'0 0.0
2014-Sep-09 07:31N 45°37' W 073°30'0 0.0
2014-Sep-09 06:31N 45°37' W 073°30'0 0.0
2014-Sep-09 05:31N 45°37' W 073°30'0 0.0
2014-Sep-09 04:31N 45°37' W 073°30'0 0.0
2014-Sep-09 03:31N 45°37' W 073°30'0 0.0
2014-Sep-09 02:31N 45°37' W 073°30'0 0.0
2014-Sep-09 01:31N 45°37' W 073°30'0 0.0
2014-Sep-09 00:31N 45°37' W 073°30'0 0.0
2014-Sep-08 23:28N 45°37' W 073°30'0 0.0
2014-Sep-08 22:31N 45°37' W 073°30'0 0.0
2014-Sep-08 21:33N 45°37' W 073°30'2 1.5
2014-Sep-08 20:32N 45°38' W 073°29'0 0.0
2014-Sep-08 19:32N 45°38' W 073°29'0 0.0
2014-Sep-08 18:32N 45°38' W 073°29'0 0.0
2014-Sep-08 17:32N 45°38' W 073°29'0 0.0
2014-Sep-08 16:32N 45°38' W 073°29'0 0.0
2014-Sep-08 15:32N 45°38' W 073°29'0 0.0
2014-Sep-08 14:32N 45°38' W 073°29'0 0.0
2014-Sep-08 13:29N 45°38' W 073°29'0 0.0
2014-Sep-08 12:32N 45°38' W 073°29'  
Track history (hours):
 
Tides and Currents Weather Stations Pressure Air Temp Water Temp Dewpoint Dewpoint Depression Visibility Wind Speed Wind Dir Waves Ship Positions

Butterfly

Last reported at 2014-Sep-18 12:23 UTC. Time now 2014-Sep-18 17:49 UTC.
Position N 40°39' W 074°07'.

Length 182 m; draft 10.4 m.

Type: Ship. MMSI: 311985000.

Date/timePositionNaut miles runAvg speedWind from/ knotsBaromVisibWave heightAir tempDewpointWater temp
2014-Sep-18 12:23N 40°39' W 074°07'0 0.0
2014-Sep-18 10:32N 40°39' W 074°07'0 0.0
2014-Sep-17 10:08N 40°39' W 074°07'0 0.0
2014-Sep-17 09:32N 40°39' W 074°07'3 3.0
2014-Sep-17 08:33N 40°38' W 074°03'8 8.0
2014-Sep-17 07:31N 40°31' W 073°58'14 6.6
2014-Sep-17 05:28N 40°29' W 073°40'0 0.0
2014-Sep-17 04:04N 40°29' W 073°40'0 0.0
2014-Sep-17 00:28N 40°29' W 073°40'7 7.0
2014-Sep-16 23:32N 40°27' W 073°48'1212.4
2014-Sep-16 22:33N 40°34' W 074°02'5 1.3
2014-Sep-16 18:20N 40°39' W 074°03'0 0.0
2014-Sep-16 17:14N 40°39' W 074°03'0 0.0
2014-Sep-16 10:29N 40°39' W 074°03'0 0.1
2014-Sep-16 09:32N 40°39' W 074°03'0 0.1
2014-Sep-16 08:32N 40°39' W 074°03'0 0.0
2014-Sep-16 07:29N 40°39' W 074°03'0 0.1
2014-Sep-16 06:32N 40°39' W 074°03'2 0.1
2014-Sep-15 05:29N 40°39' W 074°05'3 3.4
2014-Sep-15 04:32N 40°37' W 074°03'8 8.2
2014-Sep-15 03:33N 40°30' W 073°57'15 7.6
2014-Sep-15 01:34N 40°29' W 073°37'0 0.2
2014-Sep-15 00:33N 40°29' W 073°37'0 0.0
2014-Sep-14 23:33N 40°29' W 073°37'0 0.1
2014-Sep-14 22:33N 40°29' W 073°37'9 6.7
2014-Sep-14 21:16N 40°29' W 073°25'9 9.9
2014-Sep-14 20:20N 40°30' W 073°13'1013.0
2014-Sep-14 19:33N 40°30' W 073°00'1313.3
2014-Sep-14 18:33N 40°31' W 072°43'1313.1
2014-Sep-14 17:33N 40°31' W 072°25'1313.2
2014-Sep-14 16:33N 40°31' W 072°08'1313.0
2014-Sep-14 15:33N 40°32' W 071°51'1313.1
2014-Sep-14 14:32N 40°32' W 071°33'1313.2
2014-Sep-14 13:33N 40°32' W 071°16'1413.6
2014-Sep-14 12:33N 40°33' W 070°58'1414.4
2014-Sep-14 11:34N 40°33' W 070°39'1313.1
2014-Sep-14 10:33N 40°33' W 070°22'1313.1
2014-Sep-14 09:33N 40°34' W 070°05'1312.9
2014-Sep-14 08:33N 40°34' W 069°48'1312.6
2014-Sep-14 07:33N 40°34' W 069°31'  
2014-Sep-10 04:26N 46°33' W 072°09'1112.8
2014-Sep-10 03:33N 46°26' W 072°22'1211.7
2014-Sep-10 02:33N 46°18' W 072°35'1211.8
2014-Sep-10 01:33N 46°12' W 072°50'2411.9
2014-Sep-09 23:33N 45°55' W 073°13'1312.7
2014-Sep-09 22:33N 45°45' W 073°24'9 9.3
2014-Sep-09 21:33N 45°37' W 073°30'0 0.0
2014-Sep-09 20:28N 45°37' W 073°30'0 0.0
2014-Sep-09 19:31N 45°37' W 073°30'0 0.0
2014-Sep-09 18:31N 45°37' W 073°30'0 0.0
2014-Sep-09 17:31N 45°37' W 073°30'0 0.0
2014-Sep-09 16:31N 45°37' W 073°30'0 0.0
2014-Sep-09 15:31N 45°37' W 073°30'0 0.0
2014-Sep-09 14:31N 45°37' W 073°30'0 0.0
2014-Sep-09 13:31N 45°37' W 073°30'0 0.0
2014-Sep-09 12:31N 45°37' W 073°30'0 0.0
2014-Sep-09 11:31N 45°37' W 073°30'0 0.0
2014-Sep-09 10:31N 45°37' W 073°30'0 0.0
2014-Sep-09 09:31N 45°37' W 073°30'0 0.0
2014-Sep-09 08:31N 45°37' W 073°30'0 0.0
2014-Sep-09 07:31N 45°37' W 073°30'0 0.0
2014-Sep-09 06:31N 45°37' W 073°30'0 0.0
2014-Sep-09 05:31N 45°37' W 073°30'0 0.0
2014-Sep-09 04:31N 45°37' W 073°30'0 0.0
2014-Sep-09 03:31N 45°37' W 073°30'0 0.0
2014-Sep-09 02:31N 45°37' W 073°30'0 0.0
2014-Sep-09 01:31N 45°37' W 073°30'0 0.0
2014-Sep-09 00:31N 45°37' W 073°30'0 0.0
2014-Sep-08 23:28N 45°37' W 073°30'0 0.0
2014-Sep-08 22:31N 45°37' W 073°30'0 0.0
2014-Sep-08 21:33N 45°37' W 073°30'2 1.5
2014-Sep-08 20:32N 45°38' W 073°29'0 0.0
2014-Sep-08 19:32N 45°38' W 073°29'0 0.0
2014-Sep-08 18:32N 45°38' W 073°29'0 0.0
2014-Sep-08 17:32N 45°38' W 073°29'0 0.0
2014-Sep-08 16:32N 45°38' W 073°29'0 0.0
2014-Sep-08 15:32N 45°38' W 073°29'0 0.0
2014-Sep-08 14:32N 45°38' W 073°29'0 0.0
2014-Sep-08 13:29N 45°38' W 073°29'0 0.0
2014-Sep-08 12:32N 45°38' W 073°29'  

Dump ship's entire track history